Theodore, Alabama
Current Conditions -  °F | °C
As of 5:53 PM on Thursday 27 Nov 2014 (Local Time) from KBFM Reporting Station
Clear Clear  
Wind Chill: 46°   Ceiling: Unl
Heat Index: 49°   Visibility: 10mi
Dew Point: 33°   Wind: 7mph
Humidity: 54%   Direction: 330°NNW
Pressure: 30.42"   Gusts: NA
Location:  30.55°N, 88.18°W
Report Text: KBFM 272353Z AUTO 33006KT 10SM CLR 09/01 A3042 RMK AO2 SLP301 T00940006 10161 20083 51017
Loading
Personal Weather Stations






























Interactive Weather Map New forecast layout! Learn more

10-Day Weather Forecast

Advertisements
Track Severe Weather on mobile